Time;durP1;ratioP1;P1;durP2;ratioP2;P2;SDS_P1;SDS_P2;PMS_P1;PMS_P2;Temp;Humidity;BMP_temperature;BMP_pressure;BME280_temperature;BME280_humidity;BME280_pressure;Samples;Min_cycle;Max_cycle;Signal;HPM_P1;HPM_P2
2023/06/08 00:01:28;;;;;;;16.45;8.63;;;17.60;99.90;;;;;;5096128;28;20173;-59
2023/06/08 00:03:54;;;;;;;11.73;8.55;;;17.50;99.90;;;;;;5095916;28;20265;-58
2023/06/08 00:06:22;;;;;;;13.73;8.60;;;17.50;99.90;;;;;;5095949;28;20170;-59
2023/06/08 00:08:48;;;;;;;11.20;7.80;;;17.40;99.90;;;;;;5096116;28;20178;-59
2023/06/08 00:11:14;;;;;;;12.90;8.40;;;17.30;99.90;;;;;;5095667;28;20173;-58
2023/06/08 00:13:40;;;;;;;12.20;7.55;;;17.20;99.90;;;;;;5095863;28;20178;-59
2023/06/08 00:16:05;;;;;;;14.43;8.68;;;17.30;99.90;;;;;;5095742;28;20178;-59
2023/06/08 00:18:31;;;;;;;14.30;9.30;;;17.30;99.90;;;;;;5095737;28;20170;-60
2023/06/08 00:20:58;;;;;;;19.00;8.82;;;17.30;99.90;;;;;;5095619;28;20635;-59
2023/06/08 00:23:24;;;;;;;12.50;8.13;;;17.20;99.90;;;;;;5095505;28;20638;-59
2023/06/08 00:25:49;;;;;;;11.20;8.60;;;17.20;99.90;;;;;;5095766;28;20220;-58
2023/06/08 00:28:15;;;;;;;15.98;9.25;;;17.20;99.90;;;;;;5095627;28;20174;-59
2023/06/08 00:30:41;;;;;;;13.35;8.77;;;17.10;99.90;;;;;;5095491;28;20209;-58
2023/06/08 00:33:07;;;;;;;13.98;9.20;;;17.20;99.90;;;;;;5095403;28;20674;-58
2023/06/08 00:35:32;;;;;;;12.07;8.30;;;17.10;99.90;;;;;;5095381;28;20213;-59
2023/06/08 00:37:58;;;;;;;12.98;9.38;;;17.10;99.90;;;;;;5095242;28;20626;-58
2023/06/08 00:40:24;;;;;;;12.95;8.98;;;17.00;99.90;;;;;;5095445;28;20231;-59
2023/06/08 00:42:50;;;;;;;12.50;8.90;;;17.00;99.90;;;;;;5095289;28;20631;-59
2023/06/08 00:45:16;;;;;;;12.50;9.20;;;17.00;99.90;;;;;;5095099;28;20182;-59
2023/06/08 00:47:41;;;;;;;13.50;9.48;;;16.90;99.90;;;;;;5094877;28;20225;-58
2023/06/08 00:50:08;;;;;;;18.40;9.40;;;16.90;99.90;;;;;;5095049;28;20174;-59
2023/06/08 00:52:37;;;;;;;13.23;8.95;;;16.80;99.90;;;;;;5094848;28;20194;-59
2023/06/08 00:55:03;;;;;;;14.00;9.02;;;16.70;99.90;;;;;;5095040;28;20206;-62
2023/06/08 00:57:32;;;;;;;16.67;9.60;;;16.70;99.90;;;;;;5094823;28;20257;-59
2023/06/08 01:00:01;;;;;;;14.27;9.52;;;16.70;99.90;;;;;;5094814;28;20165;-59
2023/06/08 01:02:27;;;;;;;13.32;9.13;;;16.60;99.90;;;;;;5095213;28;20186;-58
2023/06/08 01:04:54;;;;;;;13.48;9.40;;;16.60;99.90;;;;;;5094963;28;20177;-59
2023/06/08 01:07:58;;;;;;;14.20;9.13;;;16.60;99.90;;;;;;5094839;28;20178;-59
2023/06/08 01:10:37;;;;;;;12.38;8.98;;;16.50;99.90;;;;;;5092518;28;20185;-58
2023/06/08 01:13:25;;;;;;;15.05;9.35;;;16.60;99.90;;;;;;5094595;28;20197;-59
2023/06/08 01:16:00;;;;;;;13.07;9.00;;;16.60;99.90;;;;;;5094767;28;20177;-58
2023/06/08 01:18:32;;;;;;;12.00;8.95;;;16.60;99.90;;;;;;5094643;28;20634;-58
2023/06/08 01:21:08;;;;;;;14.52;9.60;;;16.70;99.90;;;;;;5094648;28;20170;-59
2023/06/08 01:23:44;;;;;;;13.98;8.88;;;16.60;99.90;;;;;;5094399;28;20169;-58
2023/06/08 01:26:15;;;;;;;12.23;8.82;;;16.60;99.90;;;;;;5094713;28;20176;-59
2023/06/08 01:28:42;;;;;;;13.18;9.52;;;16.50;99.90;;;;;;5094465;28;20174;-59
2023/06/08 01:31:07;;;;;;;13.52;9.77;;;16.60;99.90;;;;;;5076494;28;20174;-59
2023/06/08 01:33:34;;;;;;;14.50;8.80;;;16.50;99.90;;;;;;5094096;28;20694;-59
2023/06/08 01:36:22;;;;;;;20.17;10.23;;;16.50;99.90;;;;;;5094119;28;20174;-59
2023/06/08 01:38:59;;;;;;;14.95;10.07;;;16.30;99.90;;;;;;5094329;28;20650;-59
2023/06/08 01:41:30;;;;;;;15.25;9.70;;;16.40;99.90;;;;;;5094197;28;20187;-59
2023/06/08 01:43:58;;;;;;;15.25;9.50;;;16.30;99.90;;;;;;5094181;28;20170;-59
2023/06/08 01:46:26;;;;;;;12.48;9.75;;;16.40;99.90;;;;;;5094030;28;20182;-58
2023/06/08 01:48:53;;;;;;;16.92;9.82;;;16.30;99.90;;;;;;5094003;28;20250;-58
2023/06/08 01:51:19;;;;;;;12.43;9.75;;;16.30;99.90;;;;;;5094031;28;20201;-58
2023/06/08 01:53:45;;;;;;;16.50;9.50;;;16.40;99.90;;;;;;5093793;28;20209;-59
2023/06/08 01:56:11;;;;;;;17.35;9.98;;;16.30;99.90;;;;;;5094221;28;20176;-59
2023/06/08 01:58:37;;;;;;;13.60;9.02;;;16.40;99.90;;;;;;5093915;28;20178;-59
2023/06/08 02:01:02;;;;;;;16.65;10.15;;;16.30;99.90;;;;;;5093838;28;20177;-59
2023/06/08 02:03:28;;;;;;;14.82;9.77;;;16.30;99.90;;;;;;5093646;28;20189;-58
2023/06/08 02:05:53;;;;;;;16.58;9.93;;;16.30;99.90;;;;;;5093921;28;20177;-59
2023/06/08 02:08:19;;;;;;;16.08;10.23;;;16.30;99.90;;;;;;5075779;28;20186;-59
2023/06/08 02:10:45;;;;;;;15.30;9.98;;;16.20;99.90;;;;;;5093711;28;20181;-59
2023/06/08 02:13:10;;;;;;;15.27;10.20;;;16.00;99.90;;;;;;5093593;28;20218;-58
2023/06/08 02:15:36;;;;;;;14.90;9.68;;;15.90;99.90;;;;;;5093608;28;20178;-59
2023/06/08 02:18:03;;;;;;;18.02;10.40;;;16.00;99.90;;;;;;5093387;28;20178;-59
2023/06/08 02:20:30;;;;;;;16.50;9.88;;;16.00;99.90;;;;;;5093711;28;20254;-59
2023/06/08 02:22:56;;;;;;;15.20;10.23;;;15.90;99.90;;;;;;5092616;28;20523;-59
2023/06/08 02:25:22;;;;;;;14.48;10.15;;;15.80;99.90;;;;;;5093539;28;20234;-59
2023/06/08 02:27:48;;;;;;;15.70;9.93;;;15.80;99.90;;;;;;5093354;28;20243;-58
2023/06/08 02:30:15;;;;;;;13.68;9.63;;;16.00;99.90;;;;;;5093395;28;20173;-59
2023/06/08 02:32:45;;;;;;;12.45;9.32;;;15.90;99.90;;;;;;5093275;28;20197;-59
2023/06/08 02:35:11;;;;;;;17.73;10.18;;;15.90;99.90;;;;;;5093461;28;20181;-59
2023/06/08 02:37:37;;;;;;;15.55;10.13;;;15.90;99.90;;;;;;5075413;28;20582;-59
2023/06/08 02:40:07;;;;;;;17.10;10.60;;;15.90;99.90;;;;;;5093361;28;20202;-59
2023/06/08 02:42:33;;;;;;;17.70;10.60;;;15.90;99.90;;;;;;5093281;28;20191;-59
2023/06/08 02:44:59;;;;;;;12.38;9.90;;;15.90;99.90;;;;;;5093231;28;20252;-59
2023/06/08 02:47:24;;;;;;;15.65;10.23;;;15.80;99.90;;;;;;5092920;28;20174;-59
2023/06/08 02:49:50;;;;;;;13.40;9.82;;;15.80;99.90;;;;;;5093393;28;20631;-59
2023/06/08 02:52:16;;;;;;;14.73;10.30;;;15.70;99.90;;;;;;5093544;28;20278;-59
2023/06/08 02:54:41;;;;;;;18.92;10.40;;;15.70;99.90;;;;;;5093191;28;20207;-59
2023/06/08 02:57:07;;;;;;;14.02;10.48;;;15.70;99.90;;;;;;5093187;28;20271;-59
2023/06/08 02:59:33;;;;;;;12.32;9.68;;;15.70;99.90;;;;;;5093126;28;20573;-59
2023/06/08 03:01:58;;;;;;;16.08;10.05;;;15.60;99.90;;;;;;5092959;28;20302;-59
2023/06/08 03:04:26;;;;;;;14.15;9.65;;;15.60;99.90;;;;;;5093172;28;20178;-58
2023/06/08 03:06:53;;;;;;;14.30;10.18;;;15.70;99.90;;;;;;5093353;28;20178;-59
2023/06/08 03:09:30;;;;;;;13.27;10.18;;;15.70;99.90;;;;;;5093130;28;20197;-58
2023/06/08 03:11:57;;;;;;;14.75;9.93;;;15.70;99.90;;;;;;5092941;28;20197;-59
2023/06/08 03:14:28;;;;;;;15.05;10.50;;;15.60;99.90;;;;;;5092916;28;20182;-59
2023/06/08 03:16:57;;;;;;;15.60;10.82;;;15.50;99.90;;;;;;5093133;28;20554;-58
2023/06/08 03:19:24;;;;;;;13.73;9.55;;;15.60;99.90;;;;;;5092949;28;20170;-59
2023/06/08 03:21:50;;;;;;;16.52;10.80;;;15.50;99.90;;;;;;5075009;28;20720;-58
2023/06/08 03:24:17;;;;;;;19.52;10.80;;;15.60;99.90;;;;;;5092979;28;20174;-59
2023/06/08 03:26:43;;;;;;;12.68;10.18;;;15.60;99.90;;;;;;5092670;28;20224;-59
2023/06/08 03:29:08;;;;;;;17.48;10.98;;;15.60;99.90;;;;;;5093066;28;20185;-58
2023/06/08 03:31:37;;;;;;;12.15;9.82;;;15.60;99.90;;;;;;5092784;28;20170;-59
2023/06/08 03:34:06;;;;;;;11.90;9.90;;;15.60;99.90;;;;;;5094597;28;20178;-59
2023/06/08 03:36:35;;;;;;;12.77;10.27;;;15.50;99.90;;;;;;5096532;28;20202;-58
2023/06/08 03:39:02;;;;;;;15.02;10.70;;;15.60;99.90;;;;;;5096400;28;20180;-59
2023/06/08 03:41:28;;;;;;;16.05;10.45;;;15.40;99.90;;;;;;5096294;28;20178;-58
2023/06/08 03:43:54;;;;;;;15.95;10.23;;;15.40;99.90;;;;;;5096535;28;20186;-58
2023/06/08 03:46:20;;;;;;;16.48;10.70;;;15.40;99.90;;;;;;5096246;28;20182;-58
2023/06/08 03:48:47;;;;;;;14.45;10.25;;;15.40;99.90;;;;;;5096070;28;20720;-58
2023/06/08 03:51:13;;;;;;;15.85;10.43;;;15.50;99.90;;;;;;5096220;28;20185;-59
2023/06/08 03:53:39;;;;;;;16.38;10.73;;;15.40;99.90;;;;;;5096091;28;20214;-58
2023/06/08 03:56:05;;;;;;;18.65;10.50;;;15.40;99.90;;;;;;5095990;28;20181;-58
2023/06/08 03:58:32;;;;;;;14.00;10.23;;;15.40;99.90;;;;;;5096229;28;20249;-58
2023/06/08 04:00:58;;;;;;;15.52;11.05;;;15.50;99.90;;;;;;5096201;28;20264;-58
2023/06/08 04:03:25;;;;;;;16.55;11.50;;;15.40;99.90;;;;;;5096003;28;20181;-58
2023/06/08 04:05:51;;;;;;;13.05;9.90;;;15.40;99.90;;;;;;5095879;28;20639;-58
2023/06/08 04:08:17;;;;;;;13.98;10.35;;;15.40;99.90;;;;;;5095893;28;20174;-58
2023/06/08 04:10:44;;;;;;;22.38;11.45;;;15.40;99.90;;;;;;5095842;28;20575;-59
2023/06/08 04:13:09;;;;;;;15.07;10.55;;;15.40;99.90;;;;;;5095892;28;20577;-58
2023/06/08 04:15:35;;;;;;;15.75;10.63;;;15.30;99.90;;;;;;5095919;28;20170;-59
2023/06/08 04:18:05;;;;;;;17.50;10.80;;;15.30;99.90;;;;;;5095898;28;20175;-59
2023/06/08 04:20:34;;;;;;;17.35;10.63;;;15.30;99.90;;;;;;5095760;28;20170;-58
2023/06/08 04:22:59;;;;;;;19.42;11.30;;;15.40;99.90;;;;;;5095567;28;20181;-58
2023/06/08 04:25:25;;;;;;;15.13;10.45;;;15.40;99.90;;;;;;5095778;28;20178;-58
2023/06/08 04:27:52;;;;;;;16.13;10.52;;;15.50;99.90;;;;;;5095682;28;20174;-58
2023/06/08 04:30:18;;;;;;;19.00;11.05;;;15.60;99.90;;;;;;5095596;28;20178;-59
2023/06/08 04:32:44;;;;;;;13.80;10.27;;;15.40;99.90;;;;;;5095576;28;20210;-59
2023/06/08 04:35:10;;;;;;;15.52;10.43;;;15.40;99.90;;;;;;5095393;28;20268;-59
2023/06/08 04:37:36;;;;;;;13.73;11.07;;;15.50;99.90;;;;;;5095277;28;20223;-59
2023/06/08 04:40:04;;;;;;;17.27;10.38;;;15.50;99.90;;;;;;5095621;28;20174;-59
2023/06/08 04:42:32;;;;;;;13.50;10.90;;;15.60;99.90;;;;;;5095556;28;20315;-58
2023/06/08 04:45:00;;;;;;;17.00;11.23;;;15.40;99.90;;;;;;5094390;28;20639;-59
2023/06/08 04:47:29;;;;;;;19.85;11.57;;;15.40;99.90;;;;;;5095040;28;20213;-59
2023/06/08 04:49:56;;;;;;;15.60;10.82;;;15.50;99.90;;;;;;5095078;28;20645;-59
2023/06/08 04:52:22;;;;;;;17.08;11.27;;;15.50;99.90;;;;;;5094882;28;20201;-59
2023/06/08 04:54:52;;;;;;;18.20;11.50;;;15.50;99.90;;;;;;5095214;28;20178;-58
2023/06/08 04:57:21;;;;;;;14.40;11.15;;;15.50;99.90;;;;;;5094981;28;20644;-59
2023/06/08 04:59:47;;;;;;;16.20;10.65;;;15.40;99.90;;;;;;5094945;28;20185;-59
2023/06/08 05:02:12;;;;;;;16.77;11.57;;;15.40;99.90;;;;;;5094944;28;20186;-58
2023/06/08 05:04:38;;;;;;;16.58;11.07;;;15.40;99.90;;;;;;5094812;28;20177;-59
2023/06/08 05:07:04;;;;;;;13.57;10.63;;;15.50;99.90;;;;;;5094729;28;20174;-61
2023/06/08 05:09:30;;;;;;;13.82;11.35;;;15.60;99.90;;;;;;5094851;28;20177;-61
2023/06/08 05:11:55;;;;;;;14.10;10.85;;;15.60;99.90;;;;;;5094670;28;20308;-61
2023/06/08 05:14:21;;;;;;;14.35;10.90;;;15.70;99.90;;;;;;5094591;28;20185;-61
2023/06/08 05:16:46;;;;;;;17.05;11.20;;;15.70;99.90;;;;;;5094622;28;20173;-61
2023/06/08 05:19:13;;;;;;;14.05;10.70;;;15.60;99.90;;;;;;5076492;28;20210;-61
2023/06/08 05:21:40;;;;;;;17.70;11.90;;;15.60;99.90;;;;;;5094297;28;20194;-61
2023/06/08 05:24:06;;;;;;;16.73;11.50;;;15.70;99.90;;;;;;5094519;28;20193;-61
2023/06/08 05:26:32;;;;;;;15.88;11.05;;;15.70;99.90;;;;;;5094681;28;20257;-61
2023/06/08 05:28:58;;;;;;;18.02;11.43;;;15.80;99.90;;;;;;5094421;28;20201;-60
2023/06/08 05:31:26;;;;;;;18.95;11.32;;;15.80;99.90;;;;;;5094349;28;20162;-61
2023/06/08 05:33:51;;;;;;;16.83;10.82;;;15.60;99.90;;;;;;5094084;28;20205;-60
2023/06/08 05:36:17;;;;;;;14.40;10.57;;;15.60;99.90;;;;;;5094138;28;20209;-60
2023/06/08 05:38:42;;;;;;;17.52;11.43;;;15.70;99.90;;;;;;5094274;28;20178;-60
2023/06/08 05:41:08;;;;;;;15.63;11.55;;;15.90;99.90;;;;;;5094071;28;20201;-60
2023/06/08 05:43:34;;;;;;;17.25;10.82;;;15.90;99.90;;;;;;5094153;28;20261;-60
2023/06/08 05:45:59;;;;;;;20.65;11.80;;;16.10;99.90;;;;;;5094089;28;20174;-60
2023/06/08 05:48:25;;;;;;;16.83;11.98;;;16.30;99.90;;;;;;5093908;28;20225;-61
2023/06/08 05:50:51;;;;;;;18.05;11.63;;;16.30;99.90;;;;;;5093873;28;20194;-60
2023/06/08 05:53:16;;;;;;;16.30;10.45;;;16.30;99.90;;;;;;5093922;28;20212;-60
2023/06/08 05:55:42;;;;;;;14.00;10.88;;;16.30;99.90;;;;;;5094121;28;20265;-60
2023/06/08 05:58:08;;;;;;;16.50;10.85;;;16.30;99.90;;;;;;5093743;28;20219;-60
2023/06/08 06:00:35;;;;;;;15.48;11.05;;;16.30;99.90;;;;;;5093871;28;20174;-60
2023/06/08 06:03:00;;;;;;;19.95;10.93;;;16.50;99.90;;;;;;5093787;28;20174;-60
2023/06/08 06:05:26;;;;;;;16.33;11.25;;;16.60;99.90;;;;;;5075686;28;20631;-60
2023/06/08 06:07:52;;;;;;;16.55;10.40;;;16.60;99.90;;;;;;5075784;28;20261;-60
2023/06/08 06:10:17;;;;;;;17.35;11.07;;;16.50;99.90;;;;;;5093841;28;20546;-60
2023/06/08 06:12:43;;;;;;;14.75;10.90;;;16.60;99.90;;;;;;5093666;28;20201;-60
2023/06/08 06:15:09;;;;;;;17.83;11.20;;;16.60;99.90;;;;;;5075683;28;20541;-60
2023/06/08 06:17:35;;;;;;;16.77;11.40;;;16.80;99.90;;;;;;5093518;28;20197;-60
2023/06/08 06:20:01;;;;;;;14.98;10.70;;;16.80;99.90;;;;;;5093492;28;20181;-60
2023/06/08 06:22:27;;;;;;;17.30;11.77;;;16.90;99.90;;;;;;5093628;28;20177;-60
2023/06/08 06:24:52;;;;;;;17.60;10.70;;;16.90;99.90;;;;;;5093500;28;20618;-60
2023/06/08 06:27:19;;;;;;;15.82;10.43;;;16.90;99.90;;;;;;5075576;28;20711;-60
2023/06/08 06:29:44;;;;;;;15.10;10.55;;;17.00;99.90;;;;;;5093374;28;20213;-60
2023/06/08 06:32:11;;;;;;;14.77;10.52;;;17.10;99.90;;;;;;5093306;28;20229;-60
2023/06/08 06:34:37;;;;;;;15.93;11.25;;;17.20;99.90;;;;;;5093311;28;20606;-60
2023/06/08 06:37:03;;;;;;;15.05;11.00;;;17.50;99.90;;;;;;5093472;28;20181;-60
2023/06/08 06:39:29;;;;;;;14.65;10.20;;;17.50;99.90;;;;;;5093450;28;20523;-60
2023/06/08 06:41:55;;;;;;;16.05;10.70;;;17.60;99.90;;;;;;5093381;28;20714;-60
2023/06/08 06:44:20;;;;;;;13.82;10.48;;;17.60;99.90;;;;;;5093282;28;20655;-60
2023/06/08 06:46:46;;;;;;;15.52;10.02;;;17.70;99.90;;;;;;5093199;28;20170;-60
2023/06/08 06:49:12;;;;;;;16.27;10.43;;;17.80;99.90;;;;;;5093472;28;20217;-60
2023/06/08 06:51:40;;;;;;;16.23;10.50;;;17.80;99.90;;;;;;5093312;28;20166;-60
2023/06/08 06:54:06;;;;;;;18.42;10.63;;;17.80;99.90;;;;;;5093202;28;20182;-60
2023/06/08 06:56:31;;;;;;;15.73;10.10;;;17.80;99.90;;;;;;5093226;28;20171;-60
2023/06/08 06:58:57;;;;;;;15.02;10.40;;;17.80;99.90;;;;;;5093213;28;20181;-60
2023/06/08 07:01:23;;;;;;;16.08;10.32;;;17.90;99.90;;;;;;5093351;28;20185;-60
2023/06/08 07:03:49;;;;;;;15.25;9.73;;;18.00;99.90;;;;;;5092957;28;20307;-61
2023/06/08 07:06:15;;;;;;;14.77;9.93;;;18.00;99.90;;;;;;5093262;28;20202;-60
2023/06/08 07:08:41;;;;;;;15.82;9.77;;;17.90;99.90;;;;;;5094212;28;20185;-60
2023/06/08 07:11:07;;;;;;;16.80;10.20;;;18.00;99.90;;;;;;5097082;28;20639;-60
2023/06/08 07:13:33;;;;;;;17.10;10.10;;;18.10;99.90;;;;;;5097035;28;20675;-60
2023/06/08 07:16:00;;;;;;;18.02;10.30;;;18.20;99.90;;;;;;5097228;28;20185;-60
2023/06/08 07:18:30;;;;;;;15.52;10.10;;;18.30;99.90;;;;;;5096752;28;20259;-60
2023/06/08 07:20:56;;;;;;;15.40;10.20;;;18.40;99.90;;;;;;5096897;28;20213;-60
2023/06/08 07:23:22;;;;;;;18.77;10.02;;;18.50;99.90;;;;;;5096847;28;20253;-60
2023/06/08 07:25:47;;;;;;;17.55;10.57;;;18.60;99.90;;;;;;5096776;28;20170;-60
2023/06/08 07:28:13;;;;;;;13.55;10.18;;;18.70;99.90;;;;;;5096765;28;20240;-60
2023/06/08 07:30:39;;;;;;;19.58;10.85;;;18.70;99.90;;;;;;5096554;28;20257;-60
2023/06/08 07:33:06;;;;;;;14.10;9.82;;;18.80;99.90;;;;;;5096424;28;20245;-60
2023/06/08 07:35:31;;;;;;;18.52;10.68;;;19.10;99.90;;;;;;5096708;28;20201;-60
2023/06/08 07:37:57;;;;;;;14.18;10.50;;;18.90;99.90;;;;;;5096606;28;20165;-60
2023/06/08 07:40:23;;;;;;;18.27;11.07;;;19.10;99.90;;;;;;5096620;28;20170;-60
2023/06/08 07:42:48;;;;;;;14.85;10.52;;;19.40;99.90;;;;;;5096526;28;20178;-60
2023/06/08 07:45:14;;;;;;;16.33;10.35;;;19.20;99.90;;;;;;5096473;28;20178;-60
2023/06/08 07:47:44;;;;;;;16.85;10.90;;;19.30;99.90;;;;;;5096318;28;20275;-60
2023/06/08 07:50:11;;;;;;;17.75;10.40;;;19.40;99.90;;;;;;5096487;28;20173;-60
2023/06/08 07:52:38;;;;;;;16.77;10.43;;;19.60;99.90;;;;;;5096386;28;20225;-60
2023/06/08 07:55:07;;;;;;;14.88;9.93;;;19.60;99.90;;;;;;5096271;28;20190;-61
2023/06/08 07:57:32;;;;;;;29.50;11.55;;;19.30;99.90;;;;;;5096299;28;20172;-61
2023/06/08 07:59:58;;;;;;;15.45;11.73;;;19.50;99.90;;;;;;5096133;28;20530;-60
2023/06/08 08:02:24;;;;;;;18.23;10.85;;;19.70;99.90;;;;;;5096320;28;20178;-61
2023/06/08 08:04:50;;;;;;;14.80;10.45;;;19.90;99.90;;;;;;5096289;28;20715;-61
2023/06/08 08:07:16;;;;;;;20.25;11.73;;;20.20;99.90;;;;;;5096004;28;20193;-61
2023/06/08 08:09:42;;;;;;;15.13;10.77;;;20.10;99.90;;;;;;5096268;28;20174;-61
2023/06/08 08:12:09;;;;;;;17.63;10.77;;;20.20;99.90;;;;;;5095761;28;20206;-61
2023/06/08 08:14:36;;;;;;;14.43;10.30;;;20.00;99.90;;;;;;5095714;28;20186;-61
2023/06/08 08:17:02;;;;;;;12.98;9.90;;;20.10;99.90;;;;;;5095963;28;20182;-61
2023/06/08 08:19:28;;;;;;;13.05;9.70;;;20.40;99.90;;;;;;5095877;28;20530;-61
2023/06/08 08:21:53;;;;;;;18.23;10.23;;;20.60;99.90;;;;;;5096158;28;20201;-61
2023/06/08 08:24:19;;;;;;;15.43;10.52;;;20.50;99.90;;;;;;5095695;28;20197;-61
2023/06/08 08:26:45;;;;;;;16.45;10.27;;;20.80;99.90;;;;;;5095687;28;20181;-61
2023/06/08 08:29:10;;;;;;;16.95;10.05;;;20.90;99.90;;;;;;5095579;28;20174;-61
2023/06/08 08:31:36;;;;;;;16.10;10.20;;;20.70;99.90;;;;;;5095589;28;20261;-61
2023/06/08 08:34:02;;;;;;;16.45;10.68;;;20.90;99.90;;;;;;5095733;28;20538;-61
2023/06/08 08:36:28;;;;;;;16.50;10.40;;;21.00;99.90;;;;;;5095575;28;20174;-61
2023/06/08 08:38:54;;;;;;;16.17;9.30;;;21.10;99.90;;;;;;5095428;28;20231;-61
2023/06/08 08:41:26;;;;;;;16.08;10.38;;;21.00;99.90;;;;;;5095845;28;20170;-61
2023/06/08 08:44:03;;;;;;;14.98;9.75;;;20.80;99.90;;;;;;5095223;28;20224;-61
2023/06/08 08:46:33;;;;;;;13.32;10.30;;;20.80;99.90;;;;;;5095359;28;20260;-62
2023/06/08 08:49:04;;;;;;;13.95;10.13;;;20.90;99.90;;;;;;5095195;28;20225;-61
2023/06/08 08:51:32;;;;;;;17.98;10.13;;;21.20;99.90;;;;;;5095471;28;20216;-61
2023/06/08 08:54:02;;;;;;;14.48;10.30;;;21.40;99.90;;;;;;5095057;28;20532;-61
2023/06/08 08:56:30;;;;;;;17.38;11.63;;;21.70;99.90;;;;;;5094996;28;20202;-61
2023/06/08 08:58:57;;;;;;;18.45;11.68;;;21.80;99.90;;;;;;5095079;28;20209;-62
2023/06/08 09:01:24;;;;;;;15.05;10.45;;;21.80;99.90;;;;;;5094967;28;20727;-61
2023/06/08 09:03:50;;;;;;;15.30;10.75;;;21.70;99.90;;;;;;5095008;28;20530;-62
2023/06/08 09:06:16;;;;;;;14.77;10.48;;;21.70;99.90;;;;;;5094769;28;20227;-61
2023/06/08 09:08:41;;;;;;;14.55;10.60;;;21.70;99.90;;;;;;5094826;28;20178;-61
2023/06/08 09:11:09;;;;;;;20.92;11.32;;;21.90;99.90;;;;;;5094670;28;20239;-61
2023/06/08 09:13:36;;;;;;;16.60;11.43;;;22.20;99.90;;;;;;5094713;28;20209;-61
2023/06/08 09:16:11;;;;;;;13.80;9.73;;;21.90;99.90;;;;;;5094769;28;20269;-61
2023/06/08 09:18:38;;;;;;;16.27;11.38;;;22.10;99.90;;;;;;5094827;28;20576;-62
2023/06/08 09:21:23;;;;;;;12.98;10.05;;;22.10;99.90;;;;;;5094679;28;20235;-62
2023/06/08 09:24:12;;;;;;;16.08;10.95;;;21.80;99.90;;;;;;5094482;28;20768;-61
2023/06/08 09:26:43;;;;;;;15.90;10.32;;;21.80;99.90;;;;;;5094543;28;20220;-62
2023/06/08 09:29:08;;;;;;;12.75;10.02;;;21.90;99.90;;;;;;5094585;28;20181;-61
2023/06/08 09:31:39;;;;;;;18.35;11.32;;;22.20;99.90;;;;;;5093743;28;20166;-62
2023/06/08 09:34:07;;;;;;;19.52;10.57;;;22.40;99.90;;;;;;5094450;28;20201;-61
2023/06/08 09:36:36;;;;;;;16.80;11.02;;;22.60;99.90;;;;;;5094071;28;20570;-62
2023/06/08 09:39:03;;;;;;;22.85;11.70;;;22.60;99.90;;;;;;5094324;28;20204;-62
2023/06/08 09:41:29;;;;;;;14.65;9.77;;;22.50;99.90;;;;;;5094194;28;20174;-61
2023/06/08 09:43:55;;;;;;;16.05;10.82;;;22.50;99.90;;;;;;5094148;28;20242;-61
2023/06/08 09:46:33;;;;;;;12.55;9.65;;;22.60;99.90;;;;;;5094011;28;20205;-62
2023/06/08 09:48:58;;;;;;;14.73;10.50;;;23.00;99.90;;;;;;5094293;28;20713;-61
2023/06/08 09:51:24;;;;;;;15.85;10.13;;;23.00;99.90;;;;;;5094120;28;20227;-62
2023/06/08 09:53:58;;;;;;;16.67;10.63;;;23.20;99.90;;;;;;5093912;28;20704;-62
2023/06/08 09:56:26;;;;;;;14.75;10.27;;;23.00;99.90;;;;;;5093970;28;20178;-62
2023/06/08 09:58:54;;;;;;;13.55;9.88;;;23.00;99.90;;;;;;5093871;28;20178;-62
2023/06/08 10:01:40;;;;;;;12.45;10.07;;;23.00;99.90;;;;;;5093952;28;20184;-62
2023/06/08 10:04:32;;;;;;;12.68;9.73;;;23.10;99.90;;;;;;5093801;28;20174;-62
2023/06/08 10:07:02;;;;;;;16.23;11.35;;;23.00;99.90;;;;;;5092438;28;20217;-62
2023/06/08 10:09:30;;;;;;;13.77;10.15;;;23.00;99.90;;;;;;5093668;28;20170;-62
2023/06/08 10:11:57;;;;;;;13.93;8.98;;;23.00;99.90;;;;;;5093651;28;20213;-61
2023/06/08 10:14:26;;;;;;;14.40;9.57;;;23.30;99.90;;;;;;5075655;28;20534;-62
2023/06/08 10:16:56;;;;;;;13.98;9.23;;;23.50;99.90;;;;;;5093677;28;20166;-62
2023/06/08 10:19:23;;;;;;;12.40;9.30;;;23.50;99.90;;;;;;5093555;28;20291;-62
2023/06/08 10:21:52;;;;;;;12.63;9.70;;;23.60;99.90;;;;;;5093539;28;20266;-62
2023/06/08 10:24:20;;;;;;;15.05;10.13;;;23.90;99.90;;;;;;5093680;28;20170;-61
2023/06/08 10:26:48;;;;;;;16.42;10.20;;;24.10;99.90;;;;;;5093544;28;20170;-62
2023/06/08 10:29:14;;;;;;;16.52;10.43;;;24.20;99.90;;;;;;5093488;28;20294;-59
2023/06/08 10:31:41;;;;;;;15.18;10.23;;;24.20;99.80;;;;;;5093198;28;20178;-59
2023/06/08 10:34:10;;;;;;;13.35;10.10;;;24.40;99.90;;;;;;5093326;28;20170;-62
2023/06/08 10:36:39;;;;;;;13.55;9.98;;;24.40;99.90;;;;;;5093374;28;20269;-62
2023/06/08 10:39:12;;;;;;;12.32;9.88;;;24.40;99.50;;;;;;5093525;28;20169;-62
2023/06/08 10:42:00;;;;;;;15.13;11.43;;;24.70;99.90;;;;;;5093465;28;20185;-62
2023/06/08 10:44:36;;;;;;;13.23;9.88;;;24.60;98.70;;;;;;5084992;28;20189;-62
2023/06/08 10:47:05;;;;;;;13.90;10.43;;;24.50;98.90;;;;;;5098024;28;20173;-62
2023/06/08 10:49:39;;;;;;;13.48;10.30;;;24.40;99.50;;;;;;5097197;28;20579;-62
2023/06/08 10:52:07;;;;;;;13.60;10.07;;;24.40;98.60;;;;;;5097384;28;20193;-62
2023/06/08 10:54:57;;;;;;;11.95;9.93;;;24.40;99.10;;;;;;5097357;28;20180;-62
2023/06/08 10:57:53;;;;;;;18.95;10.93;;;24.50;98.90;;;;;;5097089;28;20269;-62
2023/06/08 11:00:23;;;;;;;13.13;10.95;;;24.70;98.80;;;;;;5095693;28;20317;-62
2023/06/08 11:02:49;;;;;;;15.73;10.40;;;24.70;98.70;;;;;;5097202;28;20166;-62
2023/06/08 11:05:16;;;;;;;14.63;11.18;;;24.80;98.80;;;;;;5097156;28;20170;-62
2023/06/08 11:07:42;;;;;;;17.67;11.50;;;24.90;97.90;;;;;;5078919;28;20534;-62
2023/06/08 11:10:08;;;;;;;14.52;11.27;;;25.00;98.10;;;;;;5079284;28;20169;-62
2023/06/08 11:12:34;;;;;;;14.57;10.10;;;25.00;98.00;;;;;;5097255;28;20213;-62
2023/06/08 11:15:00;;;;;;;12.95;10.18;;;25.10;98.30;;;;;;5096926;28;20182;-62
2023/06/08 11:17:26;;;;;;;12.70;10.68;;;24.90;97.80;;;;;;5097047;28;20647;-62
2023/06/08 11:19:52;;;;;;;15.02;9.60;;;24.90;97.50;;;;;;5096939;28;20178;-62
2023/06/08 11:22:18;;;;;;;12.05;9.82;;;25.10;97.50;;;;;;5096655;28;20182;-62
2023/06/08 11:24:44;;;;;;;14.35;8.85;;;25.30;98.30;;;;;;5097024;28;20170;-62
2023/06/08 11:27:19;;;;;;;9.70;8.50;;;25.50;97.30;;;;;;5096788;28;20178;-62
2023/06/08 11:29:46;;;;;;;14.13;8.93;;;25.30;97.50;;;;;;5096830;28;20177;-62
2023/06/08 11:32:13;;;;;;;12.32;7.47;;;25.30;96.80;;;;;;5096660;28;20202;-62
2023/06/08 11:34:45;;;;;;;14.82;9.25;;;25.40;97.80;;;;;;5096514;28;20197;-62
2023/06/08 11:37:16;;;;;;;12.70;8.82;;;25.30;96.10;;;;;;5096834;28;20165;-62
2023/06/08 11:39:48;;;;;;;13.98;8.30;;;25.10;97.00;;;;;;5096681;28;20170;-62
2023/06/08 11:42:14;;;;;;;10.50;7.38;;;25.00;97.50;;;;;;5096698;28;20182;-62
2023/06/08 11:44:40;;;;;;;8.90;7.57;;;25.30;97.80;;;;;;5096388;28;20227;-62
2023/06/08 11:47:08;;;;;;;12.00;7.90;;;25.50;98.00;;;;;;5096375;28;20174;-62
2023/06/08 11:49:53;;;;;;;11.07;7.95;;;25.60;97.10;;;;;;5096552;28;20312;-62
2023/06/08 11:52:20;;;;;;;11.52;7.38;;;25.20;96.80;;;;;;5096276;28;20251;-62
2023/06/08 11:54:50;;;;;;;10.77;6.82;;;25.40;96.80;;;;;;5096070;28;20231;-62
2023/06/08 11:57:15;;;;;;;10.13;7.53;;;25.50;97.60;;;;;;5096110;28;20277;-62
2023/06/08 11:59:42;;;;;;;11.85;7.43;;;25.50;96.60;;;;;;5096096;28;20227;-62
2023/06/08 12:02:10;;;;;;;8.43;6.38;;;25.50;96.50;;;;;;5096045;28;20185;-62
2023/06/08 12:04:36;;;;;;;9.25;8.20;;;25.80;97.10;;;;;;5096155;28;20174;-62
2023/06/08 12:07:12;;;;;;;9.00;6.28;;;25.70;96.40;;;;;;5095978;28;20189;-62
2023/06/08 12:09:39;;;;;;;12.48;7.57;;;25.90;96.70;;;;;;5095924;28;20184;-62
2023/06/08 12:12:10;;;;;;;10.55;7.47;;;25.90;96.20;;;;;;5095817;28;20206;-62
2023/06/08 12:14:42;;;;;;;11.35;6.90;;;25.90;95.90;;;;;;5095727;28;20189;-62
2023/06/08 12:17:08;;;;;;;9.85;7.05;;;26.00;96.00;;;;;;5095982;28;20264;-62
2023/06/08 12:19:34;;;;;;;11.38;6.55;;;25.90;95.10;;;;;;5095896;28;20206;-62
2023/06/08 12:21:59;;;;;;;16.67;6.68;;;26.00;96.20;;;;;;5095751;28;20174;-63
2023/06/08 12:24:25;;;;;;;14.05;7.05;;;26.30;96.20;;;;;;5095649;28;20205;-62
2023/06/08 12:26:51;;;;;;;13.90;6.55;;;26.30;95.00;;;;;;5095514;28;20170;-62
2023/06/08 12:29:18;;;;;;;8.75;6.82;;;26.30;95.50;;;;;;5095748;28;20178;-62
2023/06/08 12:31:43;;;;;;;13.52;6.28;;;26.10;94.60;;;;;;5095579;28;20225;-62
2023/06/08 12:34:09;;;;;;;14.07;8.18;;;26.00;95.10;;;;;;5095610;28;20181;-62